Etusivu
METAR-TAF:

METAR-TAF

Lentoasemat :

Bloemfontein, Etelä-Afrikka

Leveyspiiri: 29-06S, Pituuspiiri: 026-18E, korkeus merenpinnasta: 1354 m

Tämänhetkinen sää

Tämä raportti tehtiin 21 tuntia ja 36 minuuttia sitten, kello 06.00 UTC
Tuuli 2 kn kaakosta
Lämpötila 18°C
Kosteus 45%
Ilmanpaine 1021 hPa
Näkyvyys 10 km tai enemmän
ei pilviä alle 1500 m:ssä eikä cumulonimbus-pilviä

METAR: FABL 100600Z 13002KT CAVOK 18/06 Q1021 NOSIG

Aika: 05:36 (03:36 UTC)

Sääennuste

Tämä raportti tehtiin 5 tuntia ja 36 minuuttia sitten, kello 22.00 UTC
Ennuste voimassa 11. päivästä klo 00 UTC - 11. päivään klo 24 UTC
Tuuli 10 kn idästä
Näkyvyys 10 km tai enemmän
ei pilviä alle 1500 m:ssä eikä cumulonimbus-pilviä

TAF: FABL 102200Z 1100/1124 09010KT CAVOK TX30/1113Z TN14/1103Z

Säähavainnot ja -ennusteet yli 4000 lentoasemalta (METAR- ja TAF-raportit).

Käytössä olevat sääasemat on merkitty karttaan keltaisilla ja punaisilla pisteillä.

Aseta hiiri pisteen päälle nähdäksesi sääaseman nimen.

Klikkaa sitten nähdäksesi säähavainnot ja -ennusteet.

Kartan vaihtaminen: klikkaa mustalla rastilla varustettuja vihreitä pisteitä, niin voit zoomata sisään; viivalla varustettua vihreää pistettä, niin voit zoomata ulos tai vihreitä nuolia, niin pääset viereisille kartoille.


METAR-TAF: